Star Prairie, Wisconsin
Current Conditions -  °F | °C
As of 1:15 PM on Friday 24 Oct 2014 (Local Time) from KRNH Reporting Station
Overcast Overcast  
Wind Chill: 60°   Ceiling: 1800
Heat Index: 60°   Visibility: 10mi
Dew Point: 53°   Wind: 12mph
Humidity: 78%   Direction: 200°SSW
Pressure: 29.86"   Gusts: NA
Location:  45.2°N, 92.53°W
Report Text: KRNH 241815Z AUTO 20010KT 10SM OVC018 15/12 A2986 RMK AO2 T01540116
Loading
Personal Weather Stations






























Interactive Weather Map
Tropical Storm Tracking
New forecast layout! Learn more

10-Day Weather Forecast

Advertisements
Track Severe Weather on mobile